Scarborough, ME (04074)

8:50 AM EDT on October 31, 2014 (GMT -0400)
Eastern Village - Scarborough | Change Station
CLOSE
Current Station
Personal Weather Station
Location: Scarborough, ME
Elevation: 82 ft
Nearby Weather Stations

Elev 82 ft 43.58 °N, 70.34 °W | Updated 6 seconds ago

Overcast
Overcast
40.9 °F
Feels Like 41 °F
N
0.0
Wind Variable Wind from NW
Gusts 1.0 mph

Today
High -- | Low -- °F
--% Chance of Precip.
Yesterday
High -- | Low -- °F
Precip. -- in
7:15 AM 5:33 PM
First Quarter, 55% visible
Pressure 30.06 in
Visibility 10.0 miles
Clouds Overcast 5000 ft
Windchill 41 °F
Dew Point 36 °F
Humidity 82%
Rainfall 0.00 in
Snow Depth Not available.
UV 0 out of 12
Pollen .50 out of 12
Air Quality Not available.
Flu Activity Not available.
METAR KPWM 311151Z 00000KT 10SM OVC050 04/02 A3006 RMK AO2 SLP180 T00440017 10044 20011 53010

More Conditions Fewer Conditions

Pressure 30.06 in
Visibility 10.0 miles
Clouds Overcast 5000 ft
Windchill 41 °F
Dew Point 36 °F
Humidity 82%
Rainfall 0.00 in
Snow Depth Not available.
UV 0 out of 12
Pollen .50 out of 12
Air Quality Not available.
Flu Activity Not available.
METAR KPWM 311151Z 00000KT 10SM OVC050 04/02 A3006 RMK AO2 SLP180 T00440017 10044 20011 53010

More Conditions Fewer Conditions

10-Day Weather Forecast

Almanac

Astronomy

Oct. 31, 2014 Rise Set
Actual Time
Civil Twilight
Nautical Twilight
Astronomical Twilight
Moon
Length of Visible Light
Length of Day
Tomorrow will be .
, % of the Moon is Illuminated

Today's Extremes

State Highs State Lows

Community

WunderPhotos

Upload Photos

1,766,593 photos uploaded!

WunderBlogs® & News

Nearby

Air Quality

  Air Quality AQ Index Pollutant
Not available.

Snow Depth

Station Depth Elevation

Earthquake Activity

City Distance Mag. Time & Date
Minimum magnitude displayed is 2.5.

Coastal Water Temperatures

Place Temperature

Nearby Weather Stations